sensor_id;sensor_type;location;lat;lon;timestamp;temperature;humidity
79698;SHT31;69168;42.708;23.286;2024-01-25T00:00:55;3.59;68.50
79698;SHT31;69168;42.708;23.286;2024-01-25T00:03:20;3.49;67.81
79698;SHT31;69168;42.708;23.286;2024-01-25T00:05:47;3.59;66.87
79698;SHT31;69168;42.708;23.286;2024-01-25T00:08:12;3.60;66.16
79698;SHT31;69168;42.708;23.286;2024-01-25T00:10:38;3.66;66.26
79698;SHT31;69168;42.708;23.286;2024-01-25T00:13:03;3.67;66.47
79698;SHT31;69168;42.708;23.286;2024-01-25T00:15:29;3.75;66.29
79698;SHT31;69168;42.708;23.286;2024-01-25T00:17:54;3.98;65.74
79698;SHT31;69168;42.708;23.286;2024-01-25T00:20:22;4.10;65.42
79698;SHT31;69168;42.708;23.286;2024-01-25T00:22:47;4.01;65.34
79698;SHT31;69168;42.708;23.286;2024-01-25T00:25:13;4.08;65.48
79698;SHT31;69168;42.708;23.286;2024-01-25T00:27:38;4.10;65.51
79698;SHT31;69168;42.708;23.286;2024-01-25T00:30:05;4.09;65.62
79698;SHT31;69168;42.708;23.286;2024-01-25T00:32:30;4.01;66.33
79698;SHT31;69168;42.708;23.286;2024-01-25T00:34:56;3.84;66.98
79698;SHT31;69168;42.708;23.286;2024-01-25T00:37:22;3.82;67.10
79698;SHT31;69168;42.708;23.286;2024-01-25T00:39:47;3.77;67.49
79698;SHT31;69168;42.708;23.286;2024-01-25T00:42:15;3.66;68.19
79698;SHT31;69168;42.708;23.286;2024-01-25T00:44:41;3.73;67.68
79698;SHT31;69168;42.708;23.286;2024-01-25T00:47:07;3.92;66.51
79698;SHT31;69168;42.708;23.286;2024-01-25T00:49:34;3.74;67.19
79698;SHT31;69168;42.708;23.286;2024-01-25T00:52:02;3.70;66.89
79698;SHT31;69168;42.708;23.286;2024-01-25T00:54:28;3.59;66.92
79698;SHT31;69168;42.708;23.286;2024-01-25T00:56:54;3.52;67.23
79698;SHT31;69168;42.708;23.286;2024-01-25T00:59:20;3.60;67.20
79698;SHT31;69168;42.708;23.286;2024-01-25T01:01:47;3.78;66.62
79698;SHT31;69168;42.708;23.286;2024-01-25T01:04:16;3.91;66.58
79698;SHT31;69168;42.708;23.286;2024-01-25T01:06:42;3.92;66.25
79698;SHT31;69168;42.708;23.286;2024-01-25T01:09:07;4.01;65.58
79698;SHT31;69168;42.708;23.286;2024-01-25T01:11:33;4.01;65.95
79698;SHT31;69168;42.708;23.286;2024-01-25T01:13:59;3.92;66.36
79698;SHT31;69168;42.708;23.286;2024-01-25T01:16:25;4.08;65.82
79698;SHT31;69168;42.708;23.286;2024-01-25T01:18:51;3.91;65.63
79698;SHT31;69168;42.708;23.286;2024-01-25T01:21:16;3.95;65.49
79698;SHT31;69168;42.708;23.286;2024-01-25T01:23:42;4.05;65.03
79698;SHT31;69168;42.708;23.286;2024-01-25T01:26:07;4.20;64.47
79698;SHT31;69168;42.708;23.286;2024-01-25T01:28:33;4.33;63.78
79698;SHT31;69168;42.708;23.286;2024-01-25T01:30:58;4.49;63.52
79698;SHT31;69168;42.708;23.286;2024-01-25T01:33:24;4.50;64.17
79698;SHT31;69168;42.708;23.286;2024-01-25T01:35:49;4.47;63.95
79698;SHT31;69168;42.708;23.286;2024-01-25T01:38:15;4.60;63.68
79698;SHT31;69168;42.708;23.286;2024-01-25T01:40:41;4.61;63.57
79698;SHT31;69168;42.708;23.286;2024-01-25T01:43:06;4.73;63.61
79698;SHT31;69168;42.708;23.286;2024-01-25T01:45:32;4.75;63.59
79698;SHT31;69168;42.708;23.286;2024-01-25T01:47:58;4.77;63.78
79698;SHT31;69168;42.708;23.286;2024-01-25T01:50:24;4.74;64.04
79698;SHT31;69168;42.708;23.286;2024-01-25T01:52:50;4.77;64.43
79698;SHT31;69168;42.708;23.286;2024-01-25T01:55:19;4.77;64.43
79698;SHT31;69168;42.708;23.286;2024-01-25T01:57:46;4.78;64.43
79698;SHT31;69168;42.708;23.286;2024-01-25T02:00:14;4.81;64.61
79698;SHT31;69168;42.708;23.286;2024-01-25T02:02:42;4.84;64.78
79698;SHT31;69168;42.708;23.286;2024-01-25T02:05:08;4.81;64.92
79698;SHT31;69168;42.708;23.286;2024-01-25T02:07:34;4.74;65.25
79698;SHT31;69168;42.708;23.286;2024-01-25T02:09:59;4.77;65.22
79698;SHT31;69168;42.708;23.286;2024-01-25T02:12:25;4.71;65.04
79698;SHT31;69168;42.708;23.286;2024-01-25T02:14:50;4.70;65.32
79698;SHT31;69168;42.708;23.286;2024-01-25T02:17:16;4.61;65.48
79698;SHT31;69168;42.708;23.286;2024-01-25T02:19:41;4.60;65.68
79698;SHT31;69168;42.708;23.286;2024-01-25T02:22:07;4.57;65.47
79698;SHT31;69168;42.708;23.286;2024-01-25T02:24:32;4.61;65.33
79698;SHT31;69168;42.708;23.286;2024-01-25T02:26:58;4.64;64.44
79698;SHT31;69168;42.708;23.286;2024-01-25T02:29:23;4.70;64.29
79698;SHT31;69168;42.708;23.286;2024-01-25T02:31:49;4.53;64.75
79698;SHT31;69168;42.708;23.286;2024-01-25T02:34:14;4.50;64.83
79698;SHT31;69168;42.708;23.286;2024-01-25T02:36:40;4.40;65.01
79698;SHT31;69168;42.708;23.286;2024-01-25T02:39:05;4.44;65.06
79698;SHT31;69168;42.708;23.286;2024-01-25T02:41:32;4.36;65.63
79698;SHT31;69168;42.708;23.286;2024-01-25T02:43:57;4.43;65.29
79698;SHT31;69168;42.708;23.286;2024-01-25T02:46:23;4.50;65.56
79698;SHT31;69168;42.708;23.286;2024-01-25T02:48:49;4.58;65.41
79698;SHT31;69168;42.708;23.286;2024-01-25T02:51:14;4.74;64.97
79698;SHT31;69168;42.708;23.286;2024-01-25T02:53:40;5.01;64.82
79698;SHT31;69168;42.708;23.286;2024-01-25T02:56:06;5.19;64.20
79698;SHT31;69168;42.708;23.286;2024-01-25T02:58:32;5.42;64.17
79698;SHT31;69168;42.708;23.286;2024-01-25T03:00:58;5.47;64.28
79698;SHT31;69168;42.708;23.286;2024-01-25T03:03:23;5.60;64.52
79698;SHT31;69168;42.708;23.286;2024-01-25T03:05:50;5.77;64.43
79698;SHT31;69168;42.708;23.286;2024-01-25T03:08:16;5.95;63.86
79698;SHT31;69168;42.708;23.286;2024-01-25T03:10:41;5.98;64.32
79698;SHT31;69168;42.708;23.286;2024-01-25T03:13:07;6.05;64.92
79698;SHT31;69168;42.708;23.286;2024-01-25T03:15:32;5.99;65.46
79698;SHT31;69168;42.708;23.286;2024-01-25T03:17:58;6.25;65.44
79698;SHT31;69168;42.708;23.286;2024-01-25T03:20:24;6.26;65.66
79698;SHT31;69168;42.708;23.286;2024-01-25T03:22:49;6.39;65.71
79698;SHT31;69168;42.708;23.286;2024-01-25T03:25:15;6.49;65.66
79698;SHT31;69168;42.708;23.286;2024-01-25T03:27:40;6.54;65.39
79698;SHT31;69168;42.708;23.286;2024-01-25T03:30:06;6.56;65.28
79698;SHT31;69168;42.708;23.286;2024-01-25T03:32:33;6.53;65.31
79698;SHT31;69168;42.708;23.286;2024-01-25T03:34:59;6.63;65.03
79698;SHT31;69168;42.708;23.286;2024-01-25T03:37:24;6.58;64.91
79698;SHT31;69168;42.708;23.286;2024-01-25T03:39:50;6.58;64.90
79698;SHT31;69168;42.708;23.286;2024-01-25T03:42:15;6.63;64.69
79698;SHT31;69168;42.708;23.286;2024-01-25T03:44:41;6.58;64.88
79698;SHT31;69168;42.708;23.286;2024-01-25T03:47:08;6.68;64.39
79698;SHT31;69168;42.708;23.286;2024-01-25T03:49:34;6.58;64.43
79698;SHT31;69168;42.708;23.286;2024-01-25T03:51:59;6.58;64.19
79698;SHT31;69168;42.708;23.286;2024-01-25T03:54:25;6.53;64.11
79698;SHT31;69168;42.708;23.286;2024-01-25T03:56:50;6.57;63.87
79698;SHT31;69168;42.708;23.286;2024-01-25T03:59:16;6.63;63.63
79698;SHT31;69168;42.708;23.286;2024-01-25T04:01:43;6.61;63.69
79698;SHT31;69168;42.708;23.286;2024-01-25T04:04:09;6.50;63.93
79698;SHT31;69168;42.708;23.286;2024-01-25T04:06:38;6.50;63.85
79698;SHT31;69168;42.708;23.286;2024-01-25T04:09:03;6.56;63.45
79698;SHT31;69168;42.708;23.286;2024-01-25T04:11:29;6.47;63.82
79698;SHT31;69168;42.708;23.286;2024-01-25T04:13:54;6.46;63.60
79698;SHT31;69168;42.708;23.286;2024-01-25T04:16:20;6.33;63.93
79698;SHT31;69168;42.708;23.286;2024-01-25T04:18:45;6.16;64.61
79698;SHT31;69168;42.708;23.286;2024-01-25T04:21:11;6.02;64.84
79698;SHT31;69168;42.708;23.286;2024-01-25T04:23:36;5.97;64.80
79698;SHT31;69168;42.708;23.286;2024-01-25T04:26:02;5.87;65.10
79698;SHT31;69168;42.708;23.286;2024-01-25T04:28:27;5.77;65.63
79698;SHT31;69168;42.708;23.286;2024-01-25T04:30:53;5.81;65.58
79698;SHT31;69168;42.708;23.286;2024-01-25T04:33:18;5.73;65.79
79698;SHT31;69168;42.708;23.286;2024-01-25T04:35:44;5.57;66.51
79698;SHT31;69168;42.708;23.286;2024-01-25T04:38:10;5.43;65.99
79698;SHT31;69168;42.708;23.286;2024-01-25T04:40:36;5.32;66.40
79698;SHT31;69168;42.708;23.286;2024-01-25T04:43:01;5.18;66.58
79698;SHT31;69168;42.708;23.286;2024-01-25T04:45:27;5.15;66.39
79698;SHT31;69168;42.708;23.286;2024-01-25T04:47:52;5.09;66.92
79698;SHT31;69168;42.708;23.286;2024-01-25T04:50:18;4.96;66.74
79698;SHT31;69168;42.708;23.286;2024-01-25T04:52:43;4.99;67.05
79698;SHT31;69168;42.708;23.286;2024-01-25T04:55:09;5.08;66.35
79698;SHT31;69168;42.708;23.286;2024-01-25T04:57:35;5.05;66.19
79698;SHT31;69168;42.708;23.286;2024-01-25T05:00:00;4.98;65.93
79698;SHT31;69168;42.708;23.286;2024-01-25T05:02:28;5.13;65.32
79698;SHT31;69168;42.708;23.286;2024-01-25T05:04:54;5.16;65.57
79698;SHT31;69168;42.708;23.286;2024-01-25T05:07:19;5.28;65.13
79698;SHT31;69168;42.708;23.286;2024-01-25T05:09:48;5.36;64.95
79698;SHT31;69168;42.708;23.286;2024-01-25T05:12:13;5.25;65.04
79698;SHT31;69168;42.708;23.286;2024-01-25T05:14:39;5.43;64.31
79698;SHT31;69168;42.708;23.286;2024-01-25T05:17:04;5.50;64.16
79698;SHT31;69168;42.708;23.286;2024-01-25T05:19:30;5.42;64.67
79698;SHT31;69168;42.708;23.286;2024-01-25T05:21:56;5.33;64.48
79698;SHT31;69168;42.708;23.286;2024-01-25T05:24:22;5.46;64.57
79698;SHT31;69168;42.708;23.286;2024-01-25T05:26:47;5.57;63.63
79698;SHT31;69168;42.708;23.286;2024-01-25T05:29:13;5.57;63.41
79698;SHT31;69168;42.708;23.286;2024-01-25T05:31:38;5.66;63.53
79698;SHT31;69168;42.708;23.286;2024-01-25T05:34:04;5.63;63.44
79698;SHT31;69168;42.708;23.286;2024-01-25T05:36:29;5.73;63.15
79698;SHT31;69168;42.708;23.286;2024-01-25T05:38:55;5.77;63.22
79698;SHT31;69168;42.708;23.286;2024-01-25T05:41:20;5.77;63.25
79698;SHT31;69168;42.708;23.286;2024-01-25T05:43:46;5.85;63.06
79698;SHT31;69168;42.708;23.286;2024-01-25T05:46:11;5.95;62.58
79698;SHT31;69168;42.708;23.286;2024-01-25T05:48:37;5.98;62.47
79698;SHT31;69168;42.708;23.286;2024-01-25T05:51:03;5.98;62.56
79698;SHT31;69168;42.708;23.286;2024-01-25T05:53:28;6.12;62.05
79698;SHT31;69168;42.708;23.286;2024-01-25T05:55:54;6.12;62.32
79698;SHT31;69168;42.708;23.286;2024-01-25T05:58:19;6.11;62.42
79698;SHT31;69168;42.708;23.286;2024-01-25T06:00:45;5.98;62.95
79698;SHT31;69168;42.708;23.286;2024-01-25T06:03:10;5.88;63.15
79698;SHT31;69168;42.708;23.286;2024-01-25T06:05:36;5.87;63.39
79698;SHT31;69168;42.708;23.286;2024-01-25T06:08:01;5.90;63.21
79698;SHT31;69168;42.708;23.286;2024-01-25T06:10:27;5.87;63.13
79698;SHT31;69168;42.708;23.286;2024-01-25T06:12:52;5.87;63.28
79698;SHT31;69168;42.708;23.286;2024-01-25T06:15:18;5.85;63.42
79698;SHT31;69168;42.708;23.286;2024-01-25T06:17:43;5.90;63.06
79698;SHT31;69168;42.708;23.286;2024-01-25T06:20:09;5.88;63.47
79698;SHT31;69168;42.708;23.286;2024-01-25T06:22:36;5.87;63.25
79698;SHT31;69168;42.708;23.286;2024-01-25T06:25:01;5.97;63.26
79698;SHT31;69168;42.708;23.286;2024-01-25T06:27:29;5.95;63.58
79698;SHT31;69168;42.708;23.286;2024-01-25T06:29:54;5.97;63.70
79698;SHT31;69168;42.708;23.286;2024-01-25T06:32:20;5.98;63.69
79698;SHT31;69168;42.708;23.286;2024-01-25T06:34:45;5.99;63.72
79698;SHT31;69168;42.708;23.286;2024-01-25T06:37:11;6.01;63.65
79698;SHT31;69168;42.708;23.286;2024-01-25T06:39:40;6.02;63.80
79698;SHT31;69168;42.708;23.286;2024-01-25T06:42:06;6.06;63.61
79698;SHT31;69168;42.708;23.286;2024-01-25T06:44:34;6.09;63.67
79698;SHT31;69168;42.708;23.286;2024-01-25T06:47:06;6.06;63.36
79698;SHT31;69168;42.708;23.286;2024-01-25T06:49:31;6.05;63.53
79698;SHT31;69168;42.708;23.286;2024-01-25T06:51:57;6.03;63.48
79698;SHT31;69168;42.708;23.286;2024-01-25T06:54:24;6.09;63.38
79698;SHT31;69168;42.708;23.286;2024-01-25T06:56:50;6.09;63.46
79698;SHT31;69168;42.708;23.286;2024-01-25T06:59:17;6.01;63.60
79698;SHT31;69168;42.708;23.286;2024-01-25T07:01:42;5.97;63.77
79698;SHT31;69168;42.708;23.286;2024-01-25T07:04:08;6.09;63.71
79698;SHT31;69168;42.708;23.286;2024-01-25T07:06:33;6.15;63.48
79698;SHT31;69168;42.708;23.286;2024-01-25T07:08:59;6.23;63.25
79698;SHT31;69168;42.708;23.286;2024-01-25T07:11:24;6.29;63.06
79698;SHT31;69168;42.708;23.286;2024-01-25T07:13:51;6.32;63.09
79698;SHT31;69168;42.708;23.286;2024-01-25T07:16:16;6.43;62.50
79698;SHT31;69168;42.708;23.286;2024-01-25T07:18:44;6.51;62.31
79698;SHT31;69168;42.708;23.286;2024-01-25T07:21:13;6.47;62.35
79698;SHT31;69168;42.708;23.286;2024-01-25T07:23:39;6.41;62.46
79698;SHT31;69168;42.708;23.286;2024-01-25T07:26:04;6.39;62.60
79698;SHT31;69168;42.708;23.286;2024-01-25T07:28:31;6.47;62.25
79698;SHT31;69168;42.708;23.286;2024-01-25T07:30:59;6.50;62.11
79698;SHT31;69168;42.708;23.286;2024-01-25T07:33:24;6.53;62.04
79698;SHT31;69168;42.708;23.286;2024-01-25T07:35:50;6.61;61.84
79698;SHT31;69168;42.708;23.286;2024-01-25T07:38:15;6.57;61.88
79698;SHT31;69168;42.708;23.286;2024-01-25T07:40:42;6.57;61.96
79698;SHT31;69168;42.708;23.286;2024-01-25T07:43:07;6.63;62.13
79698;SHT31;69168;42.708;23.286;2024-01-25T07:45:33;6.54;62.24
79698;SHT31;69168;42.708;23.286;2024-01-25T07:47:59;6.57;62.17
79698;SHT31;69168;42.708;23.286;2024-01-25T07:50:24;6.56;62.37
79698;SHT31;69168;42.708;23.286;2024-01-25T07:52:53;6.64;61.89
79698;SHT31;69168;42.708;23.286;2024-01-25T07:55:19;6.66;62.08
79698;SHT31;69168;42.708;23.286;2024-01-25T07:57:47;6.67;61.60
79698;SHT31;69168;42.708;23.286;2024-01-25T08:00:13;6.71;61.51
79698;SHT31;69168;42.708;23.286;2024-01-25T08:02:38;6.75;61.29
79698;SHT31;69168;42.708;23.286;2024-01-25T08:05:06;6.78;61.37
79698;SHT31;69168;42.708;23.286;2024-01-25T08:07:32;6.78;61.05
79698;SHT31;69168;42.708;23.286;2024-01-25T08:09:58;6.87;60.91
79698;SHT31;69168;42.708;23.286;2024-01-25T08:12:27;6.89;61.01
79698;SHT31;69168;42.708;23.286;2024-01-25T08:14:53;6.87;61.09
79698;SHT31;69168;42.708;23.286;2024-01-25T08:17:18;6.89;60.55
79698;SHT31;69168;42.708;23.286;2024-01-25T08:19:45;6.92;60.19
79698;SHT31;69168;42.708;23.286;2024-01-25T08:22:11;6.95;60.18
79698;SHT31;69168;42.708;23.286;2024-01-25T08:24:38;6.88;59.78
79698;SHT31;69168;42.708;23.286;2024-01-25T08:27:04;6.91;60.11
79698;SHT31;69168;42.708;23.286;2024-01-25T08:29:30;6.92;59.97
79698;SHT31;69168;42.708;23.286;2024-01-25T08:31:56;6.88;60.24
79698;SHT31;69168;42.708;23.286;2024-01-25T08:34:21;6.95;59.99
79698;SHT31;69168;42.708;23.286;2024-01-25T08:36:47;6.95;59.59
79698;SHT31;69168;42.708;23.286;2024-01-25T08:39:12;7.01;59.08
79698;SHT31;69168;42.708;23.286;2024-01-25T08:41:39;6.98;59.32
79698;SHT31;69168;42.708;23.286;2024-01-25T08:44:05;7.09;58.68
79698;SHT31;69168;42.708;23.286;2024-01-25T08:46:30;7.02;59.34
79698;SHT31;69168;42.708;23.286;2024-01-25T08:48:56;7.04;59.27
79698;SHT31;69168;42.708;23.286;2024-01-25T08:51:21;7.15;58.98
79698;SHT31;69168;42.708;23.286;2024-01-25T08:53:47;7.09;59.04
79698;SHT31;69168;42.708;23.286;2024-01-25T08:56:12;7.11;58.74
79698;SHT31;69168;42.708;23.286;2024-01-25T08:58:38;7.12;59.00
79698;SHT31;69168;42.708;23.286;2024-01-25T09:01:03;7.18;58.80
79698;SHT31;69168;42.708;23.286;2024-01-25T09:03:29;7.09;59.11
79698;SHT31;69168;42.708;23.286;2024-01-25T09:05:54;7.09;59.03
79698;SHT31;69168;42.708;23.286;2024-01-25T09:08:20;7.09;59.16
79698;SHT31;69168;42.708;23.286;2024-01-25T09:10:46;7.09;58.97
79698;SHT31;69168;42.708;23.286;2024-01-25T09:13:11;7.04;59.22
79698;SHT31;69168;42.708;23.286;2024-01-25T09:15:37;7.12;59.04
79698;SHT31;69168;42.708;23.286;2024-01-25T09:18:04;7.11;59.24
79698;SHT31;69168;42.708;23.286;2024-01-25T09:20:30;7.08;59.46
79698;SHT31;69168;42.708;23.286;2024-01-25T09:22:55;7.12;59.34
79698;SHT31;69168;42.708;23.286;2024-01-25T09:25:21;7.15;59.24
79698;SHT31;69168;42.708;23.286;2024-01-25T09:27:47;7.19;59.01
79698;SHT31;69168;42.708;23.286;2024-01-25T09:30:13;7.23;59.32
79698;SHT31;69168;42.708;23.286;2024-01-25T09:32:39;7.27;59.24
79698;SHT31;69168;42.708;23.286;2024-01-25T09:35:05;7.32;59.03
79698;SHT31;69168;42.708;23.286;2024-01-25T09:37:31;7.43;59.24
79698;SHT31;69168;42.708;23.286;2024-01-25T09:39:56;7.49;59.01
79698;SHT31;69168;42.708;23.286;2024-01-25T09:42:24;7.37;58.99
79698;SHT31;69168;42.708;23.286;2024-01-25T09:44:50;7.46;58.48
79698;SHT31;69168;42.708;23.286;2024-01-25T09:47:16;7.42;58.80
79698;SHT31;69168;42.708;23.286;2024-01-25T09:49:41;7.39;58.97
79698;SHT31;69168;42.708;23.286;2024-01-25T09:52:11;7.43;58.68
79698;SHT31;69168;42.708;23.286;2024-01-25T09:54:40;7.39;58.67
79698;SHT31;69168;42.708;23.286;2024-01-25T09:57:24;7.50;58.43
79698;SHT31;69168;42.708;23.286;2024-01-25T09:59:52;7.49;58.57
79698;SHT31;69168;42.708;23.286;2024-01-25T10:02:19;7.39;58.57
79698;SHT31;69168;42.708;23.286;2024-01-25T10:04:49;7.29;58.98
79698;SHT31;69168;42.708;23.286;2024-01-25T10:07:16;7.46;58.75
79698;SHT31;69168;42.708;23.286;2024-01-25T10:09:42;7.49;59.32
79698;SHT31;69168;42.708;23.286;2024-01-25T10:12:07;7.49;59.57
79698;SHT31;69168;42.708;23.286;2024-01-25T10:14:33;7.57;59.58
79698;SHT31;69168;42.708;23.286;2024-01-25T10:17:00;7.64;58.96
79698;SHT31;69168;42.708;23.286;2024-01-25T10:19:25;7.66;58.66
79698;SHT31;69168;42.708;23.286;2024-01-25T10:21:51;7.70;59.18
79698;SHT31;69168;42.708;23.286;2024-01-25T10:24:16;7.84;58.09
79698;SHT31;69168;42.708;23.286;2024-01-25T10:26:42;7.79;58.49
79698;SHT31;69168;42.708;23.286;2024-01-25T10:29:08;7.96;58.04
79698;SHT31;69168;42.708;23.286;2024-01-25T10:31:38;7.74;58.85
79698;SHT31;69168;42.708;23.286;2024-01-25T10:34:05;7.77;58.95
79698;SHT31;69168;42.708;23.286;2024-01-25T10:36:31;7.74;59.27
79698;SHT31;69168;42.708;23.286;2024-01-25T10:38:59;7.74;59.37
79698;SHT31;69168;42.708;23.286;2024-01-25T10:41:26;7.79;59.18
79698;SHT31;69168;42.708;23.286;2024-01-25T10:43:52;7.74;59.58
79698;SHT31;69168;42.708;23.286;2024-01-25T10:46:18;7.77;59.64
79698;SHT31;69168;42.708;23.286;2024-01-25T10:48:44;7.78;59.38
79698;SHT31;69168;42.708;23.286;2024-01-25T10:51:10;7.73;59.29
79698;SHT31;69168;42.708;23.286;2024-01-25T10:53:37;7.79;59.19
79698;SHT31;69168;42.708;23.286;2024-01-25T10:56:02;7.74;59.43
79698;SHT31;69168;42.708;23.286;2024-01-25T10:58:32;7.71;59.64
79698;SHT31;69168;42.708;23.286;2024-01-25T11:01:07;7.78;59.43
79698;SHT31;69168;42.708;23.286;2024-01-25T11:03:34;8.06;58.86
79698;SHT31;69168;42.708;23.286;2024-01-25T11:06:07;8.01;58.54
79698;SHT31;69168;42.708;23.286;2024-01-25T11:08:34;8.16;58.28
79698;SHT31;69168;42.708;23.286;2024-01-25T11:11:03;8.19;57.92
79698;SHT31;69168;42.708;23.286;2024-01-25T11:13:31;8.19;58.11
79698;SHT31;69168;42.708;23.286;2024-01-25T11:15:57;8.13;57.87
79698;SHT31;69168;42.708;23.286;2024-01-25T11:18:26;8.25;56.37
79698;SHT31;69168;42.708;23.286;2024-01-25T11:20:51;8.29;56.80
79698;SHT31;69168;42.708;23.286;2024-01-25T11:23:17;8.25;56.48
79698;SHT31;69168;42.708;23.286;2024-01-25T11:25:47;8.28;56.03
79698;SHT31;69168;42.708;23.286;2024-01-25T11:28:14;8.30;55.13
79698;SHT31;69168;42.708;23.286;2024-01-25T11:30:41;8.28;54.77
79698;SHT31;69168;42.708;23.286;2024-01-25T11:33:07;8.16;54.95
79698;SHT31;69168;42.708;23.286;2024-01-25T11:35:34;8.15;55.57
79698;SHT31;69168;42.708;23.286;2024-01-25T11:38:02;8.17;54.82
79698;SHT31;69168;42.708;23.286;2024-01-25T11:40:29;8.06;55.13
79698;SHT31;69168;42.708;23.286;2024-01-25T11:42:56;8.06;55.49
79698;SHT31;69168;42.708;23.286;2024-01-25T11:45:22;8.05;55.45
79698;SHT31;69168;42.708;23.286;2024-01-25T11:47:51;8.09;55.75
79698;SHT31;69168;42.708;23.286;2024-01-25T11:50:17;8.08;55.40
79698;SHT31;69168;42.708;23.286;2024-01-25T11:52:42;7.99;55.47
79698;SHT31;69168;42.708;23.286;2024-01-25T11:55:09;7.91;55.84
79698;SHT31;69168;42.708;23.286;2024-01-25T11:57:40;8.03;55.33
79698;SHT31;69168;42.708;23.286;2024-01-25T12:00:12;8.03;55.76
79698;SHT31;69168;42.708;23.286;2024-01-25T12:02:39;8.03;55.74
79698;SHT31;69168;42.708;23.286;2024-01-25T12:05:05;8.02;55.74
79698;SHT31;69168;42.708;23.286;2024-01-25T12:07:34;7.96;56.06
79698;SHT31;69168;42.708;23.286;2024-01-25T12:10:06;7.88;56.41
79698;SHT31;69168;42.708;23.286;2024-01-25T12:12:32;7.75;56.76
79698;SHT31;69168;42.708;23.286;2024-01-25T12:15:01;7.88;56.30
79698;SHT31;69168;42.708;23.286;2024-01-25T12:17:32;7.88;56.13
79698;SHT31;69168;42.708;23.286;2024-01-25T12:19:59;7.96;55.53
79698;SHT31;69168;42.708;23.286;2024-01-25T12:22:27;7.94;55.60
79698;SHT31;69168;42.708;23.286;2024-01-25T12:24:56;8.09;55.42
79698;SHT31;69168;42.708;23.286;2024-01-25T12:27:22;8.36;54.63
79698;SHT31;69168;42.708;23.286;2024-01-25T12:29:51;8.56;54.16
79698;SHT31;69168;42.708;23.286;2024-01-25T12:32:19;8.98;53.39
79698;SHT31;69168;42.708;23.286;2024-01-25T12:37:20;9.32;52.63
79698;SHT31;69168;42.708;23.286;2024-01-25T12:39:46;9.25;51.92
79698;SHT31;69168;42.708;23.286;2024-01-25T12:42:12;9.32;51.70
79698;SHT31;69168;42.708;23.286;2024-01-25T12:44:38;9.39;51.74
79698;SHT31;69168;42.708;23.286;2024-01-25T12:47:04;9.27;51.92
79698;SHT31;69168;42.708;23.286;2024-01-25T12:49:32;9.08;52.11
79698;SHT31;69168;42.708;23.286;2024-01-25T12:51:57;9.30;52.33
79698;SHT31;69168;42.708;23.286;2024-01-25T12:54:23;9.63;51.32
79698;SHT31;69168;42.708;23.286;2024-01-25T12:56:49;9.51;51.09
79698;SHT31;69168;42.708;23.286;2024-01-25T12:59:14;9.50;50.70
79698;SHT31;69168;42.708;23.286;2024-01-25T13:01:40;9.77;50.59
79698;SHT31;69168;42.708;23.286;2024-01-25T13:04:06;9.57;50.38
79698;SHT31;69168;42.708;23.286;2024-01-25T13:06:31;9.44;50.68
79698;SHT31;69168;42.708;23.286;2024-01-25T13:08:57;9.53;50.53
79698;SHT31;69168;42.708;23.286;2024-01-25T13:11:22;9.40;50.92
79698;SHT31;69168;42.708;23.286;2024-01-25T13:13:48;9.48;50.53
79698;SHT31;69168;42.708;23.286;2024-01-25T13:16:13;9.65;50.12
79698;SHT31;69168;42.708;23.286;2024-01-25T13:18:39;9.67;50.42
79698;SHT31;69168;42.708;23.286;2024-01-25T13:21:04;9.69;49.73
79698;SHT31;69168;42.708;23.286;2024-01-25T13:23:30;9.75;49.95
79698;SHT31;69168;42.708;23.286;2024-01-25T13:25:56;9.75;50.03
79698;SHT31;69168;42.708;23.286;2024-01-25T13:28:21;9.64;50.32
79698;SHT31;69168;42.708;23.286;2024-01-25T13:30:46;9.40;51.50
79698;SHT31;69168;42.708;23.286;2024-01-25T13:33:12;9.27;51.97
79698;SHT31;69168;42.708;23.286;2024-01-25T13:35:38;9.16;52.30
79698;SHT31;69168;42.708;23.286;2024-01-25T13:38:03;9.15;52.50
79698;SHT31;69168;42.708;23.286;2024-01-25T13:40:29;9.02;52.84
79698;SHT31;69168;42.708;23.286;2024-01-25T13:42:57;8.99;53.04
79698;SHT31;69168;42.708;23.286;2024-01-25T13:45:23;8.80;53.41
79698;SHT31;69168;42.708;23.286;2024-01-25T13:47:48;8.81;53.22
79698;SHT31;69168;42.708;23.286;2024-01-25T13:50:14;8.78;53.40
79698;SHT31;69168;42.708;23.286;2024-01-25T13:52:39;8.78;53.54
79698;SHT31;69168;42.708;23.286;2024-01-25T13:55:06;8.82;53.38
79698;SHT31;69168;42.708;23.286;2024-01-25T13:57:31;8.60;53.68
79698;SHT31;69168;42.708;23.286;2024-01-25T13:59:57;8.42;54.62
79698;SHT31;69168;42.708;23.286;2024-01-25T14:02:22;8.40;54.43
79698;SHT31;69168;42.708;23.286;2024-01-25T14:04:48;8.34;54.45
79698;SHT31;69168;42.708;23.286;2024-01-25T14:07:15;8.30;54.65
79698;SHT31;69168;42.708;23.286;2024-01-25T14:09:42;8.23;54.95
79698;SHT31;69168;42.708;23.286;2024-01-25T14:12:08;8.15;55.08
79698;SHT31;69168;42.708;23.286;2024-01-25T14:14:36;8.09;55.26
79698;SHT31;69168;42.708;23.286;2024-01-25T14:17:02;7.99;55.85
79698;SHT31;69168;42.708;23.286;2024-01-25T14:19:27;8.05;55.63
79698;SHT31;69168;42.708;23.286;2024-01-25T14:21:53;8.01;55.74
79698;SHT31;69168;42.708;23.286;2024-01-25T14:24:18;8.10;55.69
79698;SHT31;69168;42.708;23.286;2024-01-25T14:26:44;7.96;56.09
79698;SHT31;69168;42.708;23.286;2024-01-25T14:29:12;7.96;56.10
79698;SHT31;69168;42.708;23.286;2024-01-25T14:31:38;8.01;56.27
79698;SHT31;69168;42.708;23.286;2024-01-25T14:34:03;7.99;56.17
79698;SHT31;69168;42.708;23.286;2024-01-25T14:36:29;7.88;55.91
79698;SHT31;69168;42.708;23.286;2024-01-25T14:38:54;7.84;56.04
79698;SHT31;69168;42.708;23.286;2024-01-25T14:41:20;7.85;56.17
79698;SHT31;69168;42.708;23.286;2024-01-25T14:43:45;7.89;56.01
79698;SHT31;69168;42.708;23.286;2024-01-25T14:46:11;7.71;56.57
79698;SHT31;69168;42.708;23.286;2024-01-25T14:48:36;7.77;56.53
79698;SHT31;69168;42.708;23.286;2024-01-25T14:51:02;7.77;56.17
79698;SHT31;69168;42.708;23.286;2024-01-25T14:53:28;7.81;56.36
79698;SHT31;69168;42.708;23.286;2024-01-25T14:55:53;7.78;55.98
79698;SHT31;69168;42.708;23.286;2024-01-25T14:58:19;7.78;56.13
79698;SHT31;69168;42.708;23.286;2024-01-25T15:00:49;7.70;56.38
79698;SHT31;69168;42.708;23.286;2024-01-25T15:03:14;7.77;56.67
79698;SHT31;69168;42.708;23.286;2024-01-25T15:05:40;7.64;57.05
79698;SHT31;69168;42.708;23.286;2024-01-25T15:08:06;7.64;56.98
79698;SHT31;69168;42.708;23.286;2024-01-25T15:10:32;7.68;56.72
79698;SHT31;69168;42.708;23.286;2024-01-25T15:12:57;7.66;56.64
79698;SHT31;69168;42.708;23.286;2024-01-25T15:15:25;7.73;56.40
79698;SHT31;69168;42.708;23.286;2024-01-25T15:17:53;7.75;56.58
79698;SHT31;69168;42.708;23.286;2024-01-25T15:20:19;7.56;57.03
79698;SHT31;69168;42.708;23.286;2024-01-25T15:22:44;7.49;57.50
79698;SHT31;69168;42.708;23.286;2024-01-25T15:25:10;7.37;57.95